Millard, Kentucky
Current Conditions -  °F | °C
As of 1:15 AM on Friday 31 Oct 2014 (Local Time) from KPBX Reporting Station
Clear Clear  
Wind Chill: 41°   Ceiling: Unl
Heat Index: 41°   Visibility: 10mi
Dew Point: 33°   Wind: 0mph
Humidity: 74%   Direction: NA
Pressure: 30.02"   Gusts: NA
Location:  37.3722°N, 82.4513°W
Report Text: KPBX 310515Z AUTO 00000KT 10SM CLR 05/01 A3002 RMK AO2 T00500008
Loading
Personal Weather Stations






























Interactive Weather Map
Tropical Storm Tracking
New forecast layout! Learn more

10-Day Weather Forecast

Advertisements
Track Severe Weather on mobile